TRI117 YMML-YPPH
Flight info
| Callsign | TRI117 |
|---|---|
| Flight time | 3h 33m |
| Altitude | 40000 |
| Route | ML Q158 PH |
| Aircraft | A35K/H-SDE2E3GHIJ3J4J5LM1ORWXY/LB1D1 |
Departure
| Time | 2026-05-07 02:32 |
|---|---|
| Airport | Melbourne Airport (YMML) |
Arrival
| Time | 2026-05-07 06:06 |
|---|---|
| Airport | Perth International Airport (YPPH) |
| Time | Latitude | Longitude | Altitude | Speed | Heading |
|---|---|---|---|---|---|
| 2026-05-07 01:49 | -37.67399 | 144.84403 | 385 ft | 0 kts | 37° |
| 2026-05-07 02:20 | -37.67409 | 144.84393 | 385 ft | 3 kts | 37° |
| 2026-05-07 02:20 | -37.67424 | 144.84378 | 384 ft | 3 kts | 33° |
| 2026-05-07 02:20 | -37.67441 | 144.84366 | 383 ft | 3 kts | 28° |
| 2026-05-07 02:21 | -37.67459 | 144.84355 | 383 ft | 3 kts | 17° |
| 2026-05-07 02:21 | -37.67477 | 144.84349 | 382 ft | 3 kts | 13° |
| 2026-05-07 02:21 | -37.67496 | 144.84341 | 381 ft | 3 kts | 15° |
| 2026-05-07 02:21 | -37.67516 | 144.84337 | 381 ft | 2 kts | 357° |
| 2026-05-07 02:25 | -37.67514 | 144.84337 | 381 ft | 1 kts | 356° |
| 2026-05-07 02:26 | -37.67509 | 144.84335 | 381 ft | 1 kts | 347° |
| 2026-05-07 02:26 | -37.67489 | 144.84327 | 381 ft | 5 kts | 345° |
| 2026-05-07 02:26 | -37.67443 | 144.84315 | 383 ft | 8 kts | 350° |
| 2026-05-07 02:26 | -37.67372 | 144.84302 | 384 ft | 12 kts | 351° |
| 2026-05-07 02:27 | -37.67276 | 144.84283 | 386 ft | 15 kts | 352° |
| 2026-05-07 02:27 | -37.67205 | 144.84270 | 388 ft | 16 kts | 352° |
| 2026-05-07 02:27 | -37.67099 | 144.84251 | 390 ft | 16 kts | 351° |
| 2026-05-07 02:27 | -37.66948 | 144.84223 | 393 ft | 17 kts | 352° |
| 2026-05-07 02:28 | -37.66866 | 144.84207 | 392 ft | 18 kts | 352° |
| 2026-05-07 02:28 | -37.66750 | 144.84186 | 397 ft | 16 kts | 352° |
| 2026-05-07 02:28 | -37.66641 | 144.84171 | 404 ft | 15 kts | 2° |
| 2026-05-07 02:28 | -37.66556 | 144.84229 | 408 ft | 14 kts | 53° |
| 2026-05-07 02:29 | -37.66524 | 144.84348 | 409 ft | 15 kts | 81° |
| 2026-05-07 02:29 | -37.66507 | 144.84489 | 411 ft | 17 kts | 82° |
| 2026-05-07 02:29 | -37.66488 | 144.84646 | 413 ft | 19 kts | 81° |
| 2026-05-07 02:29 | -37.66470 | 144.84806 | 412 ft | 11 kts | 81° |
| 2026-05-07 02:30 | -37.66454 | 144.84893 | 415 ft | 11 kts | 68° |
| 2026-05-07 02:30 | -37.66395 | 144.84935 | 409 ft | 10 kts | 351° |
| 2026-05-07 02:30 | -37.66332 | 144.84890 | 407 ft | 11 kts | 328° |
| 2026-05-07 02:30 | -37.66273 | 144.84827 | 408 ft | 12 kts | 312° |
| 2026-05-07 02:31 | -37.66228 | 144.84727 | 410 ft | 14 kts | 285° |
| 2026-05-07 02:31 | -37.66215 | 144.84607 | 411 ft | 8 kts | 276° |
| 2026-05-07 02:31 | -37.66215 | 144.84603 | 409 ft | 0 kts | 276° |
| 2026-05-07 02:31 | -37.66206 | 144.84460 | 417 ft | 50 kts | 274° |
| 2026-05-07 02:32 | -37.66165 | 144.83722 | 420 ft | 116 kts | 274° |
| 2026-05-07 02:32 | -37.66081 | 144.82463 | 554 ft | 160 kts | 269° |
| 2026-05-07 02:32 | -37.65989 | 144.81062 | 1330 ft | 158 kts | 268° |
| 2026-05-07 02:32 | -37.65910 | 144.79657 | 1957 ft | 169 kts | 265° |
| 2026-05-07 02:33 | -37.65838 | 144.78078 | 2245 ft | 195 kts | 266° |
| 2026-05-07 02:33 | -37.65746 | 144.76250 | 2575 ft | 221 kts | 268° |
| 2026-05-07 02:33 | -37.65630 | 144.74258 | 3179 ft | 233 kts | 268° |
| 2026-05-07 02:33 | -37.65503 | 144.72191 | 3912 ft | 239 kts | 269° |
| 2026-05-07 02:34 | -37.65372 | 144.70080 | 4724 ft | 243 kts | 268° |
| 2026-05-07 02:34 | -37.65241 | 144.67937 | 5543 ft | 245 kts | 268° |
| 2026-05-07 02:34 | -37.65103 | 144.65788 | 6359 ft | 248 kts | 268° |
| 2026-05-07 02:34 | -37.64962 | 144.63605 | 7143 ft | 251 kts | 268° |
| 2026-05-07 02:35 | -37.64820 | 144.61394 | 7896 ft | 255 kts | 268° |
| 2026-05-07 02:35 | -37.64679 | 144.59165 | 8647 ft | 260 kts | 267° |
| 2026-05-07 02:35 | -37.64533 | 144.56866 | 9379 ft | 265 kts | 267° |
| 2026-05-07 02:35 | -37.64384 | 144.54529 | 10150 ft | 270 kts | 267° |
| 2026-05-07 02:36 | -37.64234 | 144.52104 | 10550 ft | 287 kts | 266° |
| 2026-05-07 02:36 | -37.64076 | 144.49501 | 10839 ft | 306 kts | 266° |
| 2026-05-07 02:36 | -37.63905 | 144.46748 | 11142 ft | 323 kts | 266° |
| 2026-05-07 02:36 | -37.63719 | 144.43857 | 11471 ft | 337 kts | 266° |
| 2026-05-07 02:37 | -37.63524 | 144.40911 | 11952 ft | 345 kts | 266° |
| 2026-05-07 02:37 | -37.63321 | 144.37876 | 12505 ft | 350 kts | 265° |
| 2026-05-07 02:37 | -37.63113 | 144.34775 | 13086 ft | 354 kts | 265° |
| 2026-05-07 02:37 | -37.62905 | 144.31651 | 13667 ft | 358 kts | 264° |
| 2026-05-07 02:38 | -37.62700 | 144.28546 | 14200 ft | 362 kts | 264° |
| 2026-05-07 02:38 | -37.62490 | 144.25356 | 14642 ft | 366 kts | 264° |
| 2026-05-07 02:38 | -37.62418 | 144.24267 | 14793 ft | 368 kts | 264° |
| 2026-05-07 02:38 | -37.62270 | 144.22020 | 15110 ft | 371 kts | 264° |
| 2026-05-07 02:39 | -37.62052 | 144.18767 | 15593 ft | 374 kts | 264° |
| 2026-05-07 02:39 | -37.61829 | 144.15477 | 16082 ft | 377 kts | 264° |
| 2026-05-07 02:39 | -37.61607 | 144.12165 | 16566 ft | 381 kts | 264° |
| 2026-05-07 02:39 | -37.61381 | 144.08818 | 17047 ft | 384 kts | 264° |
| 2026-05-07 02:40 | -37.61155 | 144.05471 | 17520 ft | 388 kts | 265° |
| 2026-05-07 02:40 | -37.60922 | 144.02069 | 17987 ft | 391 kts | 265° |
| 2026-05-07 02:40 | -37.60686 | 143.98630 | 18452 ft | 394 kts | 265° |
| 2026-05-07 02:40 | -37.60448 | 143.95162 | 18872 ft | 397 kts | 265° |
| 2026-05-07 02:41 | -37.60212 | 143.91765 | 19301 ft | 399 kts | 265° |
| 2026-05-07 02:41 | -37.59969 | 143.88277 | 19745 ft | 400 kts | 265° |
| 2026-05-07 02:41 | -37.59724 | 143.84770 | 20175 ft | 402 kts | 265° |
| 2026-05-07 02:41 | -37.59479 | 143.81252 | 20615 ft | 403 kts | 265° |
| 2026-05-07 02:42 | -37.59234 | 143.77771 | 21052 ft | 405 kts | 265° |
| 2026-05-07 02:42 | -37.58983 | 143.74223 | 21481 ft | 406 kts | 265° |
| 2026-05-07 02:42 | -37.58730 | 143.70662 | 21898 ft | 407 kts | 266° |
| 2026-05-07 02:42 | -37.58476 | 143.67097 | 22305 ft | 409 kts | 266° |
| 2026-05-07 02:43 | -37.58220 | 143.63513 | 22717 ft | 411 kts | 266° |
| 2026-05-07 02:43 | -37.57962 | 143.59915 | 23121 ft | 413 kts | 266° |
| 2026-05-07 02:43 | -37.57701 | 143.56296 | 23515 ft | 414 kts | 266° |
| 2026-05-07 02:43 | -37.57439 | 143.52671 | 23902 ft | 416 kts | 266° |
| 2026-05-07 02:44 | -37.57179 | 143.49084 | 24208 ft | 418 kts | 266° |
| 2026-05-07 02:44 | -37.56912 | 143.45430 | 24496 ft | 420 kts | 266° |
| 2026-05-07 02:44 | -37.56642 | 143.41746 | 24794 ft | 423 kts | 266° |
| 2026-05-07 02:44 | -37.56369 | 143.38040 | 25091 ft | 425 kts | 267° |
| 2026-05-07 02:45 | -37.56094 | 143.34321 | 25394 ft | 427 kts | 267° |
| 2026-05-07 02:45 | -37.55816 | 143.30582 | 25706 ft | 429 kts | 267° |
| 2026-05-07 02:45 | -37.55536 | 143.26824 | 26018 ft | 432 kts | 267° |
| 2026-05-07 02:45 | -37.55252 | 143.23037 | 26330 ft | 434 kts | 267° |
| 2026-05-07 02:46 | -37.54967 | 143.19249 | 26649 ft | 437 kts | 267° |
| 2026-05-07 02:46 | -37.54678 | 143.15423 | 26991 ft | 439 kts | 267° |
| 2026-05-07 02:46 | -37.54386 | 143.11571 | 27336 ft | 442 kts | 268° |
| 2026-05-07 02:46 | -37.54092 | 143.07704 | 27693 ft | 444 kts | 268° |
| 2026-05-07 02:47 | -37.53794 | 143.03819 | 28045 ft | 447 kts | 268° |
| 2026-05-07 02:47 | -37.53493 | 142.99907 | 28408 ft | 450 kts | 268° |
| 2026-05-07 02:47 | -37.53189 | 142.95961 | 28767 ft | 453 kts | 268° |
| 2026-05-07 02:47 | -37.52882 | 142.92004 | 29129 ft | 456 kts | 268° |
| 2026-05-07 02:48 | -37.52574 | 142.88061 | 29497 ft | 459 kts | 268° |
| 2026-05-07 02:48 | -37.52260 | 142.84041 | 29863 ft | 462 kts | 268° |
| 2026-05-07 02:48 | -37.51941 | 142.79990 | 30224 ft | 466 kts | 268° |
| 2026-05-07 02:48 | -37.51619 | 142.75905 | 30564 ft | 469 kts | 269° |
| 2026-05-07 02:49 | -37.51294 | 142.71812 | 30881 ft | 472 kts | 269° |
| 2026-05-07 02:49 | -37.50965 | 142.67679 | 31203 ft | 474 kts | 269° |
| 2026-05-07 02:49 | -37.50633 | 142.63534 | 31523 ft | 477 kts | 269° |
| 2026-05-07 02:49 | -37.50297 | 142.59365 | 31827 ft | 479 kts | 269° |
| 2026-05-07 02:50 | -37.49959 | 142.55180 | 32133 ft | 482 kts | 269° |
| 2026-05-07 02:50 | -37.49621 | 142.51016 | 32486 ft | 483 kts | 269° |
| 2026-05-07 02:50 | -37.49273 | 142.46770 | 32952 ft | 481 kts | 269° |
| 2026-05-07 02:50 | -37.48970 | 142.43070 | 33349 ft | 481 kts | 269° |
| 2026-05-07 02:51 | -37.48625 | 142.38886 | 33805 ft | 480 kts | 269° |
| 2026-05-07 02:51 | -37.48280 | 142.34709 | 34237 ft | 479 kts | 269° |
| 2026-05-07 02:51 | -37.47935 | 142.30541 | 34620 ft | 479 kts | 269° |
| 2026-05-07 02:51 | -37.47588 | 142.26374 | 34988 ft | 478 kts | 269° |
| 2026-05-07 02:52 | -37.47240 | 142.22208 | 35379 ft | 478 kts | 270° |
| 2026-05-07 02:52 | -37.46891 | 142.18047 | 35755 ft | 477 kts | 270° |
| 2026-05-07 02:52 | -37.46541 | 142.13898 | 36133 ft | 477 kts | 270° |
| 2026-05-07 02:52 | -37.46189 | 142.09736 | 36487 ft | 477 kts | 270° |
| 2026-05-07 02:53 | -37.45836 | 142.05582 | 36825 ft | 477 kts | 270° |
| 2026-05-07 02:53 | -37.45482 | 142.01429 | 37153 ft | 477 kts | 270° |
| 2026-05-07 02:53 | -37.45128 | 141.97307 | 37492 ft | 477 kts | 270° |
| 2026-05-07 02:53 | -37.44770 | 141.93147 | 37832 ft | 477 kts | 270° |
| 2026-05-07 02:54 | -37.44411 | 141.88996 | 38143 ft | 477 kts | 270° |
| 2026-05-07 02:54 | -37.44051 | 141.84846 | 38456 ft | 477 kts | 271° |
| 2026-05-07 02:54 | -37.43690 | 141.80702 | 38764 ft | 477 kts | 271° |
| 2026-05-07 02:54 | -37.43331 | 141.76602 | 39048 ft | 477 kts | 271° |
| 2026-05-07 02:55 | -37.42966 | 141.72454 | 39293 ft | 476 kts | 271° |
| 2026-05-07 02:55 | -37.42602 | 141.68325 | 39591 ft | 474 kts | 271° |
| 2026-05-07 02:55 | -37.42236 | 141.64207 | 39860 ft | 472 kts | 271° |
| 2026-05-07 02:55 | -37.41895 | 141.60372 | 40098 ft | 471 kts | 272° |
| 2026-05-07 02:56 | -37.41537 | 141.56350 | 40307 ft | 472 kts | 272° |
| 2026-05-07 02:56 | -37.41169 | 141.52245 | 40352 ft | 474 kts | 272° |
| 2026-05-07 02:56 | -37.40430 | 141.44040 | 40358 ft | 473 kts | 272° |
| 2026-05-07 02:57 | -37.39683 | 141.35820 | 40361 ft | 473 kts | 272° |
| 2026-05-07 02:57 | -37.38930 | 141.27595 | 40362 ft | 473 kts | 272° |
| 2026-05-07 02:58 | -37.38169 | 141.19360 | 40365 ft | 473 kts | 272° |
| 2026-05-07 02:58 | -37.37404 | 141.11136 | 40364 ft | 474 kts | 272° |
| 2026-05-07 02:59 | -37.36638 | 141.02955 | 40369 ft | 474 kts | 272° |
| 2026-05-07 02:59 | -37.35861 | 140.94727 | 40374 ft | 474 kts | 272° |
| 2026-05-07 03:00 | -37.35078 | 140.86494 | 40371 ft | 474 kts | 273° |
| 2026-05-07 03:00 | -37.34289 | 140.78261 | 40373 ft | 474 kts | 273° |
| 2026-05-07 03:01 | -37.33494 | 140.70028 | 40377 ft | 474 kts | 273° |
| 2026-05-07 03:01 | -37.32692 | 140.61786 | 40380 ft | 475 kts | 273° |
| 2026-05-07 03:02 | -37.31890 | 140.53599 | 40380 ft | 475 kts | 273° |
| 2026-05-07 03:02 | -37.31075 | 140.45341 | 40383 ft | 475 kts | 273° |
| 2026-05-07 03:03 | -37.30261 | 140.37144 | 40385 ft | 475 kts | 273° |
| 2026-05-07 03:03 | -37.29434 | 140.28891 | 40387 ft | 476 kts | 273° |
| 2026-05-07 03:04 | -37.28601 | 140.20631 | 40390 ft | 476 kts | 274° |
| 2026-05-07 03:04 | -37.28040 | 140.15097 | 40394 ft | 476 kts | 274° |
| 2026-05-07 03:05 | -37.27780 | 140.12539 | 40394 ft | 476 kts | 274° |
| 2026-05-07 03:05 | -37.27209 | 140.06956 | 40399 ft | 476 kts | 274° |
| 2026-05-07 03:06 | -37.26724 | 140.02943 | 40401 ft | 477 kts | 276° |
| 2026-05-07 03:06 | -37.26108 | 139.98690 | 40400 ft | 478 kts | 277° |
| 2026-05-07 03:07 | -37.25311 | 139.93546 | 40398 ft | 478 kts | 277° |
| 2026-05-07 03:07 | -37.25256 | 139.93192 | 40399 ft | 478 kts | 277° |
| 2026-05-07 03:08 | -37.25049 | 139.91863 | 40399 ft | 478 kts | 277° |
| 2026-05-07 03:09 | -37.23810 | 139.83780 | 40400 ft | 478 kts | 277° |
| 2026-05-07 03:10 | -37.22592 | 139.75584 | 40406 ft | 478 kts | 277° |
| 2026-05-07 03:10 | -37.21386 | 139.67382 | 40413 ft | 478 kts | 277° |
| 2026-05-07 03:11 | -37.20182 | 139.59223 | 40408 ft | 478 kts | 277° |
| 2026-05-07 03:11 | -37.18966 | 139.51030 | 40418 ft | 478 kts | 277° |
| 2026-05-07 03:12 | -37.17740 | 139.42828 | 40412 ft | 478 kts | 277° |
| 2026-05-07 03:12 | -37.16510 | 139.34634 | 40417 ft | 478 kts | 277° |
| 2026-05-07 03:13 | -37.15274 | 139.26442 | 40417 ft | 478 kts | 277° |
| 2026-05-07 03:13 | -37.14032 | 139.18253 | 40415 ft | 478 kts | 277° |
| 2026-05-07 03:14 | -37.12785 | 139.10063 | 40425 ft | 478 kts | 278° |
| 2026-05-07 03:15 | -37.11188 | 138.99641 | 40426 ft | 478 kts | 278° |
| 2026-05-07 03:15 | -37.09722 | 138.90126 | 40429 ft | 478 kts | 278° |
| 2026-05-07 03:16 | -37.08454 | 138.81943 | 40430 ft | 478 kts | 278° |
| 2026-05-07 03:16 | -37.07395 | 138.75137 | 40435 ft | 479 kts | 278° |
| 2026-05-07 03:17 | -37.06117 | 138.66954 | 40439 ft | 479 kts | 278° |
| 2026-05-07 03:17 | -37.04834 | 138.58782 | 40438 ft | 478 kts | 278° |
| 2026-05-07 03:18 | -37.03541 | 138.50581 | 40440 ft | 479 kts | 278° |
| 2026-05-07 03:18 | -37.02245 | 138.42407 | 40442 ft | 479 kts | 278° |
| 2026-05-07 03:19 | -37.00945 | 138.34238 | 40444 ft | 479 kts | 278° |
| 2026-05-07 03:19 | -36.99647 | 138.26124 | 40446 ft | 479 kts | 278° |
| 2026-05-07 03:20 | -36.98334 | 138.17953 | 40447 ft | 479 kts | 278° |
| 2026-05-07 03:20 | -36.97015 | 138.09781 | 40451 ft | 479 kts | 279° |
| 2026-05-07 03:21 | -36.95732 | 138.01872 | 40452 ft | 479 kts | 279° |
| 2026-05-07 03:21 | -36.94422 | 137.93831 | 40453 ft | 479 kts | 279° |
| 2026-05-07 03:22 | -36.93086 | 137.85663 | 40457 ft | 479 kts | 279° |
| 2026-05-07 03:22 | -36.91743 | 137.77493 | 40459 ft | 479 kts | 279° |
| 2026-05-07 03:23 | -36.90395 | 137.69324 | 40462 ft | 480 kts | 279° |
| 2026-05-07 03:23 | -36.89041 | 137.61160 | 40462 ft | 480 kts | 279° |
| 2026-05-07 03:24 | -36.87690 | 137.53056 | 40463 ft | 480 kts | 279° |
| 2026-05-07 03:24 | -36.86324 | 137.44894 | 40463 ft | 480 kts | 279° |
| 2026-05-07 03:25 | -36.84952 | 137.36728 | 40465 ft | 480 kts | 279° |
| 2026-05-07 03:25 | -36.83571 | 137.28548 | 40475 ft | 480 kts | 279° |
| 2026-05-07 03:26 | -36.82198 | 137.20444 | 40473 ft | 480 kts | 279° |
| 2026-05-07 03:26 | -36.80808 | 137.12286 | 40475 ft | 480 kts | 280° |
| 2026-05-07 03:27 | -36.79412 | 137.04132 | 40474 ft | 480 kts | 280° |
| 2026-05-07 03:27 | -36.78011 | 136.95979 | 40480 ft | 480 kts | 280° |
| 2026-05-07 03:28 | -36.76604 | 136.87824 | 40478 ft | 480 kts | 280° |
| 2026-05-07 03:28 | -36.75201 | 136.79726 | 40484 ft | 480 kts | 280° |
| 2026-05-07 03:29 | -36.73785 | 136.71593 | 40486 ft | 480 kts | 280° |
| 2026-05-07 03:29 | -36.72362 | 136.63450 | 40487 ft | 480 kts | 280° |
| 2026-05-07 03:30 | -36.70933 | 136.55309 | 40482 ft | 480 kts | 280° |
| 2026-05-07 03:30 | -36.69499 | 136.47179 | 40489 ft | 480 kts | 281° |
| 2026-05-07 03:31 | -36.68061 | 136.39052 | 40490 ft | 480 kts | 281° |
| 2026-05-07 03:31 | -36.66621 | 136.30954 | 40496 ft | 481 kts | 281° |
| 2026-05-07 03:32 | -36.65170 | 136.22824 | 40496 ft | 480 kts | 281° |
| 2026-05-07 03:32 | -36.63716 | 136.14716 | 40506 ft | 480 kts | 281° |
| 2026-05-07 03:33 | -36.62253 | 136.06587 | 40496 ft | 480 kts | 281° |
| 2026-05-07 03:33 | -36.60794 | 135.98514 | 40504 ft | 480 kts | 281° |
| 2026-05-07 03:34 | -36.59324 | 135.90413 | 40508 ft | 480 kts | 281° |
| 2026-05-07 03:34 | -36.57845 | 135.82295 | 40511 ft | 480 kts | 281° |
| 2026-05-07 03:35 | -36.56361 | 135.74191 | 40510 ft | 480 kts | 281° |
| 2026-05-07 03:35 | -36.54880 | 135.66140 | 40511 ft | 480 kts | 281° |
| 2026-05-07 03:36 | -36.53389 | 135.58055 | 40510 ft | 480 kts | 281° |
| 2026-05-07 03:36 | -36.51891 | 135.49955 | 40512 ft | 480 kts | 281° |
| 2026-05-07 03:37 | -36.50386 | 135.41868 | 40512 ft | 480 kts | 281° |
| 2026-05-07 03:37 | -36.48872 | 135.33772 | 40516 ft | 480 kts | 281° |
| 2026-05-07 03:38 | -36.47359 | 135.25698 | 40519 ft | 479 kts | 282° |
| 2026-05-07 03:38 | -36.45851 | 135.17676 | 40522 ft | 479 kts | 282° |
| 2026-05-07 03:39 | -36.44324 | 135.09603 | 40523 ft | 479 kts | 282° |
| 2026-05-07 03:39 | -36.42797 | 135.01549 | 40525 ft | 479 kts | 282° |
| 2026-05-07 03:40 | -36.41404 | 134.93528 | 39940 ft | 478 kts | 280° |
| 2026-05-07 03:40 | -36.40808 | 134.89393 | 40555 ft | 481 kts | 278° |
| 2026-05-07 03:40 | -36.40245 | 134.85343 | 40529 ft | 480 kts | 278° |
| 2026-05-07 03:41 | -36.39095 | 134.77201 | 40530 ft | 478 kts | 279° |
| 2026-05-07 03:41 | -36.37899 | 134.69072 | 40528 ft | 478 kts | 279° |
| 2026-05-07 03:42 | -36.36675 | 134.60947 | 40530 ft | 478 kts | 279° |
| 2026-05-07 03:42 | -36.35439 | 134.52826 | 40532 ft | 478 kts | 279° |
| 2026-05-07 03:43 | -36.34202 | 134.44712 | 40531 ft | 478 kts | 279° |
| 2026-05-07 03:43 | -36.32970 | 134.36658 | 40538 ft | 478 kts | 279° |
| 2026-05-07 03:44 | -36.31797 | 134.29013 | 40538 ft | 478 kts | 279° |
| 2026-05-07 03:44 | -36.30894 | 134.23162 | 40536 ft | 478 kts | 280° |
| 2026-05-07 03:45 | -36.30785 | 134.22454 | 40537 ft | 478 kts | 279° |
| 2026-05-07 03:45 | -36.29538 | 134.14404 | 40540 ft | 478 kts | 280° |
| 2026-05-07 03:46 | -36.28275 | 134.06297 | 40540 ft | 478 kts | 280° |
| 2026-05-07 03:46 | -36.27010 | 133.98206 | 40541 ft | 478 kts | 280° |
| 2026-05-07 03:47 | -36.25740 | 133.90123 | 40544 ft | 478 kts | 280° |
| 2026-05-07 03:47 | -36.24472 | 133.82088 | 40546 ft | 478 kts | 280° |
| 2026-05-07 03:48 | -36.23193 | 133.74014 | 40606 ft | 478 kts | 280° |
| 2026-05-07 03:48 | -36.21896 | 133.65882 | 40547 ft | 480 kts | 280° |
| 2026-05-07 03:49 | -36.20603 | 133.57798 | 40551 ft | 478 kts | 280° |
| 2026-05-07 03:49 | -36.19304 | 133.49719 | 40552 ft | 478 kts | 280° |
| 2026-05-07 03:50 | -36.18003 | 133.41653 | 40554 ft | 478 kts | 280° |
| 2026-05-07 03:50 | -36.16701 | 133.33621 | 40554 ft | 478 kts | 280° |
| 2026-05-07 03:51 | -36.15390 | 133.25569 | 40552 ft | 478 kts | 281° |
| 2026-05-07 03:51 | -36.14071 | 133.17508 | 40551 ft | 478 kts | 281° |
| 2026-05-07 03:52 | -36.12745 | 133.09445 | 40554 ft | 478 kts | 281° |
| 2026-05-07 03:52 | -36.11412 | 133.01377 | 40561 ft | 478 kts | 281° |
| 2026-05-07 03:53 | -36.10079 | 132.93334 | 40562 ft | 478 kts | 281° |
| 2026-05-07 03:53 | -36.08793 | 132.85605 | 40562 ft | 477 kts | 281° |
| 2026-05-07 03:54 | -36.07456 | 132.77616 | 40562 ft | 478 kts | 281° |
| 2026-05-07 03:54 | -36.06105 | 132.69565 | 40564 ft | 478 kts | 281° |
| 2026-05-07 03:55 | -36.04747 | 132.61517 | 40569 ft | 478 kts | 281° |
| 2026-05-07 03:55 | -36.03386 | 132.53481 | 40566 ft | 478 kts | 281° |
| 2026-05-07 03:56 | -36.02025 | 132.45485 | 40566 ft | 478 kts | 281° |
| 2026-05-07 03:56 | -36.00653 | 132.37450 | 40570 ft | 478 kts | 281° |
| 2026-05-07 03:57 | -35.99275 | 132.29415 | 40572 ft | 478 kts | 281° |
| 2026-05-07 03:57 | -35.97891 | 132.21379 | 40573 ft | 478 kts | 281° |
| 2026-05-07 03:58 | -35.96500 | 132.13348 | 40572 ft | 478 kts | 281° |
| 2026-05-07 03:58 | -35.95104 | 132.05315 | 40576 ft | 479 kts | 281° |
| 2026-05-07 03:59 | -35.93703 | 131.97282 | 40576 ft | 479 kts | 281° |
| 2026-05-07 03:59 | -35.92304 | 131.89296 | 40576 ft | 478 kts | 281° |
| 2026-05-07 04:00 | -35.90926 | 131.81471 | 40575 ft | 479 kts | 281° |
| 2026-05-07 04:00 | -35.89507 | 131.73437 | 40573 ft | 479 kts | 281° |
| 2026-05-07 04:01 | -35.88085 | 131.65416 | 40576 ft | 479 kts | 281° |
| 2026-05-07 04:01 | -35.86657 | 131.57390 | 40578 ft | 479 kts | 281° |
| 2026-05-07 04:02 | -35.85222 | 131.49367 | 40583 ft | 479 kts | 281° |
| 2026-05-07 04:02 | -35.84023 | 131.42693 | 40586 ft | 479 kts | 281° |
| 2026-05-07 04:03 | -35.82570 | 131.34663 | 40587 ft | 480 kts | 282° |
| 2026-05-07 04:03 | -35.81114 | 131.26640 | 40583 ft | 480 kts | 282° |
| 2026-05-07 04:04 | -35.79663 | 131.18678 | 40587 ft | 479 kts | 282° |
| 2026-05-07 04:04 | -35.78192 | 131.10639 | 40591 ft | 480 kts | 282° |
| 2026-05-07 04:05 | -35.76721 | 131.02622 | 40586 ft | 480 kts | 282° |
| 2026-05-07 04:05 | -35.75243 | 130.94607 | 40587 ft | 480 kts | 282° |
| 2026-05-07 04:06 | -35.73768 | 130.86643 | 40591 ft | 480 kts | 282° |
| 2026-05-07 04:06 | -35.72279 | 130.78632 | 40587 ft | 480 kts | 282° |
| 2026-05-07 04:07 | -35.70782 | 130.70605 | 40587 ft | 480 kts | 282° |
| 2026-05-07 04:07 | -35.69285 | 130.62605 | 40587 ft | 480 kts | 282° |
| 2026-05-07 04:08 | -35.67791 | 130.54660 | 40590 ft | 480 kts | 282° |
| 2026-05-07 04:08 | -35.66278 | 130.46647 | 40590 ft | 480 kts | 282° |
| 2026-05-07 04:09 | -35.64761 | 130.38638 | 40592 ft | 480 kts | 282° |
| 2026-05-07 04:09 | -35.63237 | 130.30627 | 40594 ft | 481 kts | 282° |
| 2026-05-07 04:10 | -35.61718 | 130.22673 | 40597 ft | 481 kts | 282° |
| 2026-05-07 04:10 | -35.60183 | 130.14658 | 40596 ft | 481 kts | 282° |
| 2026-05-07 04:11 | -35.58644 | 130.06658 | 40594 ft | 481 kts | 282° |
| 2026-05-07 04:11 | -35.57099 | 129.98663 | 40597 ft | 481 kts | 282° |
| 2026-05-07 04:12 | -35.55549 | 129.90667 | 40596 ft | 481 kts | 282° |
| 2026-05-07 04:12 | -35.53992 | 129.82663 | 40600 ft | 481 kts | 282° |
| 2026-05-07 04:13 | -35.52438 | 129.74709 | 40599 ft | 481 kts | 282° |
| 2026-05-07 04:13 | -35.50871 | 129.66722 | 40599 ft | 481 kts | 282° |
| 2026-05-07 04:14 | -35.49300 | 129.58738 | 40599 ft | 481 kts | 282° |
| 2026-05-07 04:14 | -35.47720 | 129.50740 | 40601 ft | 482 kts | 282° |
| 2026-05-07 04:15 | -35.46137 | 129.42757 | 40603 ft | 482 kts | 283° |
| 2026-05-07 04:15 | -35.44557 | 129.34819 | 40596 ft | 482 kts | 283° |
| 2026-05-07 04:16 | -35.42961 | 129.26829 | 40607 ft | 482 kts | 283° |
| 2026-05-07 04:16 | -35.41361 | 129.18849 | 40596 ft | 482 kts | 283° |
| 2026-05-07 04:17 | -35.39756 | 129.10871 | 40594 ft | 482 kts | 283° |
| 2026-05-07 04:17 | -35.38144 | 129.02891 | 40610 ft | 482 kts | 283° |
| 2026-05-07 04:18 | -35.36536 | 128.94961 | 40607 ft | 482 kts | 283° |
| 2026-05-07 04:18 | -35.34911 | 128.86973 | 40607 ft | 482 kts | 283° |
| 2026-05-07 04:19 | -35.33284 | 128.79004 | 40607 ft | 482 kts | 283° |
| 2026-05-07 04:19 | -35.31650 | 128.71027 | 40606 ft | 482 kts | 283° |
| 2026-05-07 04:20 | -35.30011 | 128.63058 | 40606 ft | 482 kts | 283° |
| 2026-05-07 04:20 | -35.28372 | 128.55116 | 40602 ft | 481 kts | 283° |
| 2026-05-07 04:21 | -35.25913 | 128.43258 | 40603 ft | 481 kts | 283° |
| 2026-05-07 04:21 | -35.24261 | 128.35326 | 40612 ft | 481 kts | 283° |
| 2026-05-07 04:22 | -35.22605 | 128.27401 | 40609 ft | 481 kts | 283° |
| 2026-05-07 04:22 | -35.20944 | 128.19479 | 40604 ft | 481 kts | 283° |
| 2026-05-07 04:23 | -35.19276 | 128.11553 | 40611 ft | 481 kts | 283° |
| 2026-05-07 04:23 | -35.17603 | 128.03630 | 40609 ft | 481 kts | 283° |
| 2026-05-07 04:24 | -35.15921 | 127.95707 | 40612 ft | 481 kts | 283° |
| 2026-05-07 04:24 | -35.14252 | 127.87840 | 40612 ft | 481 kts | 283° |
| 2026-05-07 04:25 | -35.12567 | 127.79916 | 40610 ft | 482 kts | 283° |
| 2026-05-07 04:25 | -35.10876 | 127.71997 | 40611 ft | 482 kts | 283° |
| 2026-05-07 04:26 | -35.09178 | 127.64081 | 40607 ft | 482 kts | 283° |
| 2026-05-07 04:26 | -35.07473 | 127.56160 | 40607 ft | 482 kts | 283° |
| 2026-05-07 04:27 | -35.05763 | 127.48241 | 40605 ft | 482 kts | 283° |
| 2026-05-07 04:27 | -35.04059 | 127.40378 | 40604 ft | 482 kts | 283° |
| 2026-05-07 04:28 | -35.02336 | 127.32450 | 40606 ft | 482 kts | 283° |
| 2026-05-07 04:28 | -35.00620 | 127.24587 | 40607 ft | 482 kts | 283° |
| 2026-05-07 04:29 | -34.98885 | 127.16661 | 40601 ft | 482 kts | 283° |
| 2026-05-07 04:29 | -34.97152 | 127.08768 | 40601 ft | 482 kts | 283° |
| 2026-05-07 04:30 | -34.95409 | 127.00859 | 40600 ft | 483 kts | 283° |
| 2026-05-07 04:30 | -34.93662 | 126.92958 | 40599 ft | 483 kts | 283° |
| 2026-05-07 04:31 | -34.91918 | 126.85097 | 40603 ft | 483 kts | 283° |
| 2026-05-07 04:31 | -34.90158 | 126.77193 | 40596 ft | 483 kts | 283° |
| 2026-05-07 04:32 | -34.88394 | 126.69294 | 40601 ft | 483 kts | 283° |
| 2026-05-07 04:32 | -34.86622 | 126.61386 | 40599 ft | 483 kts | 283° |
| 2026-05-07 04:33 | -34.84845 | 126.53480 | 40599 ft | 484 kts | 283° |
| 2026-05-07 04:33 | -34.83061 | 126.45571 | 40599 ft | 484 kts | 283° |
| 2026-05-07 04:34 | -34.81274 | 126.37678 | 40595 ft | 484 kts | 283° |
| 2026-05-07 04:34 | -34.79494 | 126.29837 | 40596 ft | 484 kts | 283° |
| 2026-05-07 04:35 | -34.77692 | 126.21927 | 40596 ft | 484 kts | 283° |
| 2026-05-07 04:35 | -34.75887 | 126.14028 | 40596 ft | 485 kts | 283° |
| 2026-05-07 04:36 | -34.74075 | 126.06128 | 40594 ft | 485 kts | 283° |
| 2026-05-07 04:36 | -34.72258 | 125.98231 | 40594 ft | 485 kts | 283° |
| 2026-05-07 04:37 | -34.70433 | 125.90323 | 40594 ft | 485 kts | 284° |
| 2026-05-07 04:37 | -34.68619 | 125.82489 | 40594 ft | 485 kts | 284° |
| 2026-05-07 04:38 | -34.66779 | 125.74566 | 40594 ft | 486 kts | 284° |
| 2026-05-07 04:38 | -34.64937 | 125.66662 | 40593 ft | 486 kts | 284° |
| 2026-05-07 04:39 | -34.63101 | 125.58808 | 40592 ft | 486 kts | 284° |
| 2026-05-07 04:39 | -34.61246 | 125.50897 | 40590 ft | 486 kts | 284° |
| 2026-05-07 04:40 | -34.59391 | 125.43014 | 40589 ft | 486 kts | 284° |
| 2026-05-07 04:40 | -34.57530 | 125.35130 | 40587 ft | 486 kts | 284° |
| 2026-05-07 04:41 | -34.55659 | 125.27229 | 40592 ft | 486 kts | 284° |
| 2026-05-07 04:41 | -34.53798 | 125.19393 | 40586 ft | 486 kts | 284° |
| 2026-05-07 04:42 | -34.51919 | 125.11507 | 40589 ft | 487 kts | 284° |
| 2026-05-07 04:42 | -34.50035 | 125.03623 | 40586 ft | 487 kts | 284° |
| 2026-05-07 04:43 | -34.48147 | 124.95741 | 40587 ft | 486 kts | 284° |
| 2026-05-07 04:43 | -34.46249 | 124.87862 | 40589 ft | 487 kts | 284° |
| 2026-05-07 04:44 | -34.44358 | 124.80046 | 40580 ft | 487 kts | 284° |
| 2026-05-07 04:44 | -34.42448 | 124.72173 | 40584 ft | 487 kts | 284° |
| 2026-05-07 04:45 | -34.40535 | 124.64303 | 40586 ft | 487 kts | 284° |
| 2026-05-07 04:45 | -34.38615 | 124.56432 | 40583 ft | 487 kts | 284° |
| 2026-05-07 04:46 | -34.36690 | 124.48562 | 40579 ft | 487 kts | 284° |
| 2026-05-07 04:46 | -34.34771 | 124.40744 | 40579 ft | 487 kts | 284° |
| 2026-05-07 04:47 | -34.32837 | 124.32885 | 40581 ft | 487 kts | 284° |
| 2026-05-07 04:47 | -34.30898 | 124.25032 | 40579 ft | 487 kts | 284° |
| 2026-05-07 04:48 | -34.28955 | 124.17186 | 40574 ft | 487 kts | 284° |
| 2026-05-07 04:48 | -34.27003 | 124.09326 | 40575 ft | 487 kts | 284° |
| 2026-05-07 04:49 | -34.25061 | 124.01533 | 40572 ft | 487 kts | 284° |
| 2026-05-07 04:49 | -34.23100 | 123.93688 | 40578 ft | 487 kts | 284° |
| 2026-05-07 04:50 | -34.21132 | 123.85836 | 40574 ft | 487 kts | 284° |
| 2026-05-07 04:50 | -34.19175 | 123.78049 | 40571 ft | 487 kts | 284° |
| 2026-05-07 04:51 | -34.17200 | 123.70217 | 40564 ft | 487 kts | 285° |
| 2026-05-07 04:51 | -34.15555 | 123.63712 | 40568 ft | 488 kts | 285° |
| 2026-05-07 04:52 | -34.13568 | 123.55874 | 40578 ft | 487 kts | 285° |
| 2026-05-07 04:52 | -34.11586 | 123.48080 | 40571 ft | 487 kts | 285° |
| 2026-05-07 04:53 | -34.09589 | 123.40252 | 40551 ft | 487 kts | 285° |
| 2026-05-07 04:53 | -34.07590 | 123.32435 | 40567 ft | 487 kts | 285° |
| 2026-05-07 04:54 | -34.05582 | 123.24608 | 40569 ft | 487 kts | 285° |
| 2026-05-07 04:54 | -34.03573 | 123.16803 | 40565 ft | 487 kts | 285° |
| 2026-05-07 04:55 | -34.01569 | 123.09036 | 40564 ft | 487 kts | 285° |
| 2026-05-07 04:55 | -33.99552 | 123.01241 | 40566 ft | 487 kts | 285° |
| 2026-05-07 04:56 | -33.97528 | 122.93443 | 40564 ft | 487 kts | 285° |
| 2026-05-07 04:56 | -33.95513 | 122.85703 | 40565 ft | 487 kts | 285° |
| 2026-05-07 04:57 | -33.93481 | 122.77922 | 40563 ft | 487 kts | 285° |
| 2026-05-07 04:57 | -33.91442 | 122.70134 | 40559 ft | 487 kts | 285° |
| 2026-05-07 04:58 | -33.89400 | 122.62356 | 40562 ft | 487 kts | 285° |
| 2026-05-07 04:58 | -33.87354 | 122.54585 | 40561 ft | 487 kts | 285° |
| 2026-05-07 04:59 | -33.85305 | 122.46826 | 40556 ft | 487 kts | 285° |
| 2026-05-07 04:59 | -33.83259 | 122.39102 | 40553 ft | 487 kts | 285° |
| 2026-05-07 05:00 | -33.81200 | 122.31350 | 40552 ft | 486 kts | 285° |
| 2026-05-07 05:00 | -33.79137 | 122.23603 | 40555 ft | 486 kts | 286° |
| 2026-05-07 05:01 | -33.77069 | 122.15861 | 40548 ft | 486 kts | 286° |
| 2026-05-07 05:01 | -33.75001 | 122.08139 | 40546 ft | 486 kts | 286° |
| 2026-05-07 05:02 | -33.72924 | 122.00408 | 40549 ft | 486 kts | 286° |
| 2026-05-07 05:02 | -33.70842 | 121.92679 | 40547 ft | 486 kts | 286° |
| 2026-05-07 05:03 | -33.68753 | 121.84946 | 40545 ft | 486 kts | 286° |
| 2026-05-07 05:03 | -33.66618 | 121.77236 | 40545 ft | 487 kts | 287° |
| 2026-05-07 05:04 | -33.64329 | 121.69571 | 40546 ft | 487 kts | 288° |
| 2026-05-07 05:04 | -33.62039 | 121.61975 | 40545 ft | 486 kts | 288° |
| 2026-05-07 05:05 | -33.59755 | 121.54341 | 40544 ft | 486 kts | 288° |
| 2026-05-07 05:05 | -33.57477 | 121.46697 | 40541 ft | 486 kts | 288° |
| 2026-05-07 05:06 | -33.55195 | 121.39048 | 40540 ft | 486 kts | 288° |
| 2026-05-07 05:06 | -33.52907 | 121.31405 | 40541 ft | 486 kts | 288° |
| 2026-05-07 05:07 | -33.50632 | 121.23825 | 40540 ft | 486 kts | 288° |
| 2026-05-07 05:07 | -33.48344 | 121.16223 | 40532 ft | 486 kts | 288° |
| 2026-05-07 05:08 | -33.46040 | 121.08587 | 40536 ft | 486 kts | 288° |
| 2026-05-07 05:08 | -33.43731 | 121.00957 | 40537 ft | 486 kts | 288° |
| 2026-05-07 05:09 | -33.41420 | 120.93338 | 40533 ft | 486 kts | 288° |
| 2026-05-07 05:09 | -33.39118 | 120.85766 | 40533 ft | 486 kts | 288° |
| 2026-05-07 05:10 | -33.36801 | 120.78166 | 40536 ft | 486 kts | 288° |
| 2026-05-07 05:10 | -33.34479 | 120.70565 | 40530 ft | 486 kts | 288° |
| 2026-05-07 05:11 | -33.32152 | 120.62973 | 40531 ft | 486 kts | 288° |
| 2026-05-07 05:11 | -33.29819 | 120.55378 | 40533 ft | 486 kts | 288° |
| 2026-05-07 05:12 | -33.27482 | 120.47786 | 40532 ft | 486 kts | 288° |
| 2026-05-07 05:12 | -33.25140 | 120.40199 | 40525 ft | 486 kts | 288° |
| 2026-05-07 05:13 | -33.22794 | 120.32620 | 40525 ft | 486 kts | 288° |
| 2026-05-07 05:13 | -33.20444 | 120.25043 | 40520 ft | 486 kts | 288° |
| 2026-05-07 05:14 | -33.18103 | 120.17515 | 40519 ft | 486 kts | 288° |
| 2026-05-07 05:14 | -33.15737 | 120.09925 | 40517 ft | 486 kts | 288° |
| 2026-05-07 05:15 | -33.13370 | 120.02354 | 40517 ft | 486 kts | 288° |
| 2026-05-07 05:15 | -33.11015 | 119.94837 | 40518 ft | 486 kts | 288° |
| 2026-05-07 05:16 | -33.08642 | 119.87282 | 40514 ft | 486 kts | 289° |
| 2026-05-07 05:16 | -33.06261 | 119.79723 | 40513 ft | 486 kts | 289° |
| 2026-05-07 05:17 | -33.03874 | 119.72162 | 40512 ft | 486 kts | 289° |
| 2026-05-07 05:17 | -33.01505 | 119.64673 | 40510 ft | 486 kts | 289° |
| 2026-05-07 05:18 | -32.99118 | 119.57148 | 40507 ft | 486 kts | 289° |
| 2026-05-07 05:18 | -32.96724 | 119.49616 | 40509 ft | 486 kts | 289° |
| 2026-05-07 05:19 | -32.94322 | 119.42083 | 40505 ft | 486 kts | 289° |
| 2026-05-07 05:19 | -32.91923 | 119.34576 | 40499 ft | 486 kts | 289° |
| 2026-05-07 05:20 | -32.89516 | 119.27064 | 40498 ft | 485 kts | 289° |
| 2026-05-07 05:20 | -32.87106 | 119.19560 | 40499 ft | 485 kts | 289° |
| 2026-05-07 05:21 | -32.83499 | 119.08360 | 40501 ft | 485 kts | 289° |
| 2026-05-07 05:22 | -32.81076 | 119.00858 | 40494 ft | 485 kts | 289° |
| 2026-05-07 05:22 | -32.78649 | 118.93364 | 40493 ft | 485 kts | 289° |
| 2026-05-07 05:23 | -32.76218 | 118.85873 | 40489 ft | 485 kts | 289° |
| 2026-05-07 05:23 | -32.73787 | 118.78405 | 40486 ft | 485 kts | 289° |
| 2026-05-07 05:24 | -32.71352 | 118.70939 | 40486 ft | 484 kts | 289° |
| 2026-05-07 05:24 | -32.68915 | 118.63484 | 40487 ft | 484 kts | 289° |
| 2026-05-07 05:25 | -32.66486 | 118.56070 | 40479 ft | 484 kts | 289° |
| 2026-05-07 05:25 | -32.64038 | 118.48618 | 40482 ft | 484 kts | 289° |
| 2026-05-07 05:26 | -32.61587 | 118.41171 | 40477 ft | 484 kts | 289° |
| 2026-05-07 05:26 | -32.59129 | 118.33721 | 40474 ft | 484 kts | 289° |
| 2026-05-07 05:27 | -32.56684 | 118.26330 | 40470 ft | 484 kts | 289° |
| 2026-05-07 05:27 | -32.54220 | 118.18897 | 40469 ft | 484 kts | 289° |
| 2026-05-07 05:28 | -32.51752 | 118.11471 | 40469 ft | 484 kts | 289° |
| 2026-05-07 05:28 | -32.49275 | 118.04035 | 40459 ft | 484 kts | 289° |
| 2026-05-07 05:29 | -32.46803 | 117.96628 | 40457 ft | 484 kts | 289° |
| 2026-05-07 05:29 | -32.44322 | 117.89213 | 40455 ft | 484 kts | 289° |
| 2026-05-07 05:30 | -32.41835 | 117.81799 | 40450 ft | 484 kts | 289° |
| 2026-05-07 05:30 | -32.39365 | 117.74451 | 40449 ft | 483 kts | 289° |
| 2026-05-07 05:31 | -32.36881 | 117.67053 | 40440 ft | 483 kts | 289° |
| 2026-05-07 05:31 | -32.34944 | 117.59501 | 40451 ft | 481 kts | 284° |
| 2026-05-07 05:32 | -32.33102 | 117.51882 | 40435 ft | 481 kts | 284° |
| 2026-05-07 05:32 | -32.31267 | 117.44274 | 40441 ft | 481 kts | 284° |
| 2026-05-07 05:33 | -32.29430 | 117.36665 | 40432 ft | 481 kts | 284° |
| 2026-05-07 05:33 | -32.27587 | 117.29050 | 40429 ft | 481 kts | 284° |
| 2026-05-07 05:34 | -32.25743 | 117.21457 | 40431 ft | 480 kts | 284° |
| 2026-05-07 05:34 | -32.23907 | 117.13911 | 40426 ft | 480 kts | 283° |
| 2026-05-07 05:35 | -32.22058 | 117.06336 | 40426 ft | 480 kts | 283° |
| 2026-05-07 05:35 | -32.20202 | 116.98753 | 40425 ft | 480 kts | 283° |
| 2026-05-07 05:36 | -32.18353 | 116.91175 | 40412 ft | 479 kts | 283° |
| 2026-05-07 05:36 | -32.17188 | 116.83496 | 40418 ft | 476 kts | 276° |
| 2026-05-07 05:37 | -32.16208 | 116.75770 | 40421 ft | 476 kts | 276° |
| 2026-05-07 05:37 | -32.15208 | 116.68024 | 40415 ft | 476 kts | 276° |
| 2026-05-07 05:38 | -32.14691 | 116.60284 | 40424 ft | 471 kts | 262° |
| 2026-05-07 05:38 | -32.15521 | 116.52684 | 40414 ft | 470 kts | 260° |
| 2026-05-07 05:39 | -32.16812 | 116.46451 | 40288 ft | 463 kts | 248° |
| 2026-05-07 05:39 | -32.18098 | 116.43027 | 39633 ft | 463 kts | 240° |
| 2026-05-07 05:39 | -32.19869 | 116.39825 | 38732 ft | 467 kts | 231° |
| 2026-05-07 05:39 | -32.22089 | 116.36997 | 37694 ft | 472 kts | 221° |
| 2026-05-07 05:40 | -32.24707 | 116.34624 | 36726 ft | 477 kts | 212° |
| 2026-05-07 05:40 | -32.27644 | 116.32782 | 35821 ft | 480 kts | 202° |
| 2026-05-07 05:40 | -32.30814 | 116.31530 | 34937 ft | 482 kts | 193° |
| 2026-05-07 05:40 | -32.34143 | 116.30908 | 34009 ft | 485 kts | 184° |
| 2026-05-07 05:41 | -32.37525 | 116.30949 | 32954 ft | 488 kts | 174° |
| 2026-05-07 05:41 | -32.40837 | 116.31656 | 31945 ft | 490 kts | 164° |
| 2026-05-07 05:41 | -32.44052 | 116.33032 | 30923 ft | 493 kts | 154° |
| 2026-05-07 05:41 | -32.47030 | 116.35045 | 29841 ft | 494 kts | 144° |
| 2026-05-07 05:42 | -32.49671 | 116.37640 | 28923 ft | 491 kts | 134° |
| 2026-05-07 05:42 | -32.51887 | 116.40703 | 28129 ft | 486 kts | 125° |
| 2026-05-07 05:42 | -32.53621 | 116.44110 | 27344 ft | 481 kts | 115° |
| 2026-05-07 05:42 | -32.54835 | 116.47742 | 26676 ft | 476 kts | 106° |
| 2026-05-07 05:43 | -32.55534 | 116.51543 | 26023 ft | 470 kts | 97° |
| 2026-05-07 05:43 | -32.55703 | 116.55377 | 25366 ft | 465 kts | 88° |
| 2026-05-07 05:43 | -32.55307 | 116.59180 | 24735 ft | 461 kts | 76° |
| 2026-05-07 05:43 | -32.54217 | 116.62723 | 24112 ft | 456 kts | 63° |
| 2026-05-07 05:44 | -32.52458 | 116.65828 | 23386 ft | 452 kts | 50° |
| 2026-05-07 05:44 | -32.50144 | 116.68328 | 22651 ft | 450 kts | 36° |
| 2026-05-07 05:44 | -32.47437 | 116.70084 | 21950 ft | 448 kts | 23° |
| 2026-05-07 05:44 | -32.44445 | 116.71045 | 21265 ft | 446 kts | 10° |
| 2026-05-07 05:45 | -32.41353 | 116.71149 | 20586 ft | 445 kts | 357° |
| 2026-05-07 05:45 | -32.38316 | 116.70459 | 19915 ft | 443 kts | 347° |
| 2026-05-07 05:45 | -32.35355 | 116.69472 | 19250 ft | 439 kts | 346° |
| 2026-05-07 05:45 | -32.32429 | 116.68469 | 18573 ft | 435 kts | 346° |
| 2026-05-07 05:46 | -32.29568 | 116.67500 | 17832 ft | 431 kts | 346° |
| 2026-05-07 05:46 | -32.26692 | 116.66538 | 17118 ft | 427 kts | 347° |
| 2026-05-07 05:46 | -32.23843 | 116.65591 | 16398 ft | 423 kts | 347° |
| 2026-05-07 05:46 | -32.21052 | 116.64558 | 15786 ft | 418 kts | 342° |
| 2026-05-07 05:47 | -32.18424 | 116.63177 | 15500 ft | 406 kts | 334° |
| 2026-05-07 05:47 | -32.16061 | 116.61445 | 15258 ft | 395 kts | 327° |
| 2026-05-07 05:47 | -32.13972 | 116.59399 | 15020 ft | 384 kts | 319° |
| 2026-05-07 05:47 | -32.12185 | 116.57112 | 14802 ft | 374 kts | 311° |
| 2026-05-07 05:48 | -32.10698 | 116.54632 | 14591 ft | 364 kts | 303° |
| 2026-05-07 05:48 | -32.09534 | 116.52068 | 14406 ft | 354 kts | 296° |
| 2026-05-07 05:48 | -32.08652 | 116.49392 | 14223 ft | 345 kts | 289° |
| 2026-05-07 05:48 | -32.08059 | 116.46691 | 14014 ft | 336 kts | 282° |
| 2026-05-07 05:49 | -32.07736 | 116.43980 | 13677 ft | 332 kts | 276° |
| 2026-05-07 05:49 | -32.07678 | 116.41266 | 13287 ft | 329 kts | 269° |
| 2026-05-07 05:49 | -32.07872 | 116.38624 | 12894 ft | 327 kts | 262° |
| 2026-05-07 05:49 | -32.08318 | 116.36001 | 12504 ft | 324 kts | 256° |
| 2026-05-07 05:50 | -32.09001 | 116.33467 | 12110 ft | 322 kts | 249° |
| 2026-05-07 05:50 | -32.09914 | 116.31049 | 11708 ft | 320 kts | 242° |
| 2026-05-07 05:50 | -32.11013 | 116.28821 | 11330 ft | 318 kts | 236° |
| 2026-05-07 05:50 | -32.12265 | 116.26685 | 10934 ft | 316 kts | 233° |
| 2026-05-07 05:51 | -32.13539 | 116.24586 | 10583 ft | 313 kts | 233° |
| 2026-05-07 05:51 | -32.14792 | 116.22522 | 10428 ft | 307 kts | 234° |
| 2026-05-07 05:51 | -32.16031 | 116.20470 | 10399 ft | 307 kts | 234° |
| 2026-05-07 05:51 | -32.17265 | 116.18405 | 10400 ft | 307 kts | 235° |
| 2026-05-07 05:52 | -32.18361 | 116.16241 | 10403 ft | 307 kts | 243° |
| 2026-05-07 05:52 | -32.19168 | 116.13910 | 10335 ft | 304 kts | 252° |
| 2026-05-07 05:52 | -32.19626 | 116.11534 | 10175 ft | 295 kts | 263° |
| 2026-05-07 05:52 | -32.19775 | 116.09163 | 10030 ft | 284 kts | 270° |
| 2026-05-07 05:53 | -32.19807 | 116.06872 | 9889 ft | 275 kts | 270° |
| 2026-05-07 05:53 | -32.19815 | 116.04636 | 9633 ft | 270 kts | 272° |
| 2026-05-07 05:53 | -32.19673 | 116.02443 | 9263 ft | 267 kts | 279° |
| 2026-05-07 05:53 | -32.19305 | 116.00301 | 8955 ft | 265 kts | 286° |
| 2026-05-07 05:54 | -32.18849 | 115.98204 | 8656 ft | 263 kts | 287° |
| 2026-05-07 05:54 | -32.18385 | 115.96119 | 8429 ft | 258 kts | 287° |
| 2026-05-07 05:54 | -32.17890 | 115.94127 | 8303 ft | 247 kts | 294° |
| 2026-05-07 05:54 | -32.17054 | 115.92447 | 8164 ft | 234 kts | 315° |
| 2026-05-07 05:55 | -32.15824 | 115.91294 | 8009 ft | 222 kts | 336° |
| 2026-05-07 05:55 | -32.14385 | 115.90754 | 7739 ft | 215 kts | 357° |
| 2026-05-07 05:55 | -32.12924 | 115.90826 | 7447 ft | 209 kts | 16° |
| 2026-05-07 05:55 | -32.11548 | 115.91322 | 7189 ft | 206 kts | 21° |
| 2026-05-07 05:56 | -32.10205 | 115.91880 | 6964 ft | 203 kts | 24° |
| 2026-05-07 05:56 | -32.08873 | 115.92441 | 6661 ft | 202 kts | 19° |
| 2026-05-07 05:56 | -32.07510 | 115.92834 | 6245 ft | 201 kts | 15° |
| 2026-05-07 05:56 | -32.06140 | 115.93148 | 5998 ft | 201 kts | 14° |
| 2026-05-07 05:57 | -32.04768 | 115.93385 | 5770 ft | 203 kts | 6° |
| 2026-05-07 05:57 | -32.03402 | 115.92941 | 5549 ft | 210 kts | 330° |
| 2026-05-07 05:57 | -32.02451 | 115.91621 | 5325 ft | 218 kts | 296° |
| 2026-05-07 05:57 | -32.02257 | 115.89851 | 5081 ft | 222 kts | 261° |
| 2026-05-07 05:58 | -32.02895 | 115.88222 | 4803 ft | 220 kts | 226° |
| 2026-05-07 05:58 | -32.04129 | 115.87214 | 4543 ft | 216 kts | 200° |
| 2026-05-07 05:58 | -32.05534 | 115.86588 | 4256 ft | 215 kts | 195° |
| 2026-05-07 05:58 | -32.06952 | 115.86031 | 3978 ft | 215 kts | 194° |
| 2026-05-07 05:59 | -32.08364 | 115.85491 | 3761 ft | 211 kts | 194° |
| 2026-05-07 05:59 | -32.09765 | 115.85264 | 3471 ft | 202 kts | 168° |
| 2026-05-07 05:59 | -32.10970 | 115.85928 | 3205 ft | 189 kts | 133° |
| 2026-05-07 05:59 | -32.11607 | 115.87214 | 3040 ft | 177 kts | 107° |
| 2026-05-07 06:00 | -32.11961 | 115.88548 | 3029 ft | 163 kts | 104° |
| 2026-05-07 06:00 | -32.12256 | 115.89767 | 3033 ft | 150 kts | 103° |
| 2026-05-07 06:00 | -32.12308 | 115.90910 | 3025 ft | 137 kts | 66° |
| 2026-05-07 06:00 | -32.11559 | 115.91562 | 3029 ft | 140 kts | 19° |
| 2026-05-07 06:01 | -32.10588 | 115.91765 | 3027 ft | 143 kts | 13° |
| 2026-05-07 06:01 | -32.09591 | 115.91968 | 2871 ft | 145 kts | 16° |
| 2026-05-07 06:01 | -32.08621 | 115.92220 | 2688 ft | 144 kts | 18° |
| 2026-05-07 06:01 | -32.07653 | 115.92502 | 2487 ft | 143 kts | 19° |
| 2026-05-07 06:02 | -32.06685 | 115.92788 | 2284 ft | 143 kts | 19° |
| 2026-05-07 06:02 | -32.05726 | 115.93070 | 2089 ft | 141 kts | 19° |
| 2026-05-07 06:02 | -32.04773 | 115.93348 | 1900 ft | 141 kts | 19° |
| 2026-05-07 06:02 | -32.03821 | 115.93627 | 1711 ft | 142 kts | 20° |
| 2026-05-07 06:03 | -32.02871 | 115.93907 | 1522 ft | 136 kts | 20° |
| 2026-05-07 06:03 | -32.01990 | 115.94164 | 1347 ft | 128 kts | 20° |
| 2026-05-07 06:03 | -32.01119 | 115.94422 | 1179 ft | 130 kts | 19° |
| 2026-05-07 06:03 | -32.00241 | 115.94679 | 1010 ft | 131 kts | 21° |
| 2026-05-07 06:04 | -31.99344 | 115.94944 | 815 ft | 133 kts | 20° |
| 2026-05-07 06:04 | -31.98443 | 115.95209 | 638 ft | 135 kts | 17° |
| 2026-05-07 06:04 | -31.97546 | 115.95471 | 456 ft | 129 kts | 16° |
| 2026-05-07 06:04 | -31.96679 | 115.95724 | 291 ft | 131 kts | 20° |
| 2026-05-07 06:05 | -31.95808 | 115.95982 | 117 ft | 130 kts | 19° |
| 2026-05-07 06:05 | -31.94939 | 115.96237 | 68 ft | 127 kts | 17° |
| 2026-05-07 06:05 | -31.94171 | 115.96466 | 69 ft | 101 kts | 13° |
| 2026-05-07 06:05 | -31.93550 | 115.96632 | 60 ft | 83 kts | 12° |
| 2026-05-07 06:06 | -31.93044 | 115.96792 | 54 ft | 56 kts | 14° |
| 2026-05-07 06:06 | -31.92946 | 115.96824 | 51 ft | 6 kts | 25° |
| 2026-05-07 06:06 | -31.92903 | 115.96910 | 55 ft | 14 kts | 92° |
| 2026-05-07 06:06 | -31.92920 | 115.97030 | 54 ft | 16 kts | 103° |
| 2026-05-07 06:07 | -31.92963 | 115.97141 | 53 ft | 13 kts | 149° |
| 2026-05-07 06:07 | -31.93048 | 115.97143 | 57 ft | 13 kts | 193° |
| 2026-05-07 06:07 | -31.93145 | 115.97114 | 54 ft | 16 kts | 194° |
| 2026-05-07 06:07 | -31.93261 | 115.97080 | 60 ft | 18 kts | 194° |
| 2026-05-07 06:08 | -31.93315 | 115.97065 | 67 ft | 0 kts | 193° |
| 2026-05-07 06:08 | -31.93318 | 115.97064 | 67 ft | 1 kts | 193° |
| 2026-05-07 06:08 | -31.93326 | 115.97062 | 59 ft | 2 kts | 193° |
| 2026-05-07 06:08 | -31.93339 | 115.97058 | 58 ft | 2 kts | 193° |
| 2026-05-07 06:09 | -31.93361 | 115.97052 | 64 ft | 4 kts | 194° |
| 2026-05-07 06:09 | -31.93393 | 115.97047 | 65 ft | 5 kts | 178° |
| 2026-05-07 06:09 | -31.93426 | 115.97062 | 67 ft | 5 kts | 151° |
| 2026-05-07 06:09 | -31.93460 | 115.97085 | 67 ft | 7 kts | 150° |
| 2026-05-07 06:10 | -31.93509 | 115.97119 | 65 ft | 10 kts | 149° |
| 2026-05-07 06:10 | -31.93584 | 115.97172 | 62 ft | 15 kts | 149° |
| 2026-05-07 06:10 | -31.93680 | 115.97240 | 61 ft | 17 kts | 149° |
| 2026-05-07 06:10 | -31.93792 | 115.97320 | 62 ft | 19 kts | 150° |
| 2026-05-07 06:11 | -31.93865 | 115.97371 | 60 ft | 7 kts | 148° |
| 2026-05-07 06:11 | -31.93903 | 115.97411 | 63 ft | 8 kts | 128° |
| 2026-05-07 06:11 | -31.93944 | 115.97435 | 64 ft | 7 kts | 166° |
| 2026-05-07 06:11 | -31.93994 | 115.97450 | 66 ft | 7 kts | 167° |
| 2026-05-07 06:12 | -31.94000 | 115.97451 | 67 ft | 0 kts | 169° |